sensor_id;sensor_type;location;lat;lon;timestamp;P1;durP1;ratioP1;P2;durP2;ratioP2
56269;SDS011;42176;43.240;27.880;2024-01-06T00:00:28;3.47;;;1.77;;
56269;SDS011;42176;43.240;27.880;2024-01-06T00:02:29;3.97;;;2.13;;
56269;SDS011;42176;43.240;27.880;2024-01-06T00:04:30;2.60;;;1.63;;
56269;SDS011;42176;43.240;27.880;2024-01-06T00:06:34;6.63;;;1.75;;
56269;SDS011;42176;43.240;27.880;2024-01-06T00:08:35;6.20;;;1.77;;
56269;SDS011;42176;43.240;27.880;2024-01-06T00:10:35;5.80;;;2.47;;
56269;SDS011;42176;43.240;27.880;2024-01-06T00:12:36;5.50;;;2.47;;
56269;SDS011;42176;43.240;27.880;2024-01-06T00:14:36;5.93;;;2.60;;
56269;SDS011;42176;43.240;27.880;2024-01-06T00:16:38;5.30;;;2.03;;
56269;SDS011;42176;43.240;27.880;2024-01-06T00:18:39;3.90;;;1.67;;
56269;SDS011;42176;43.240;27.880;2024-01-06T00:20:39;7.67;;;2.00;;
56269;SDS011;42176;43.240;27.880;2024-01-06T00:22:40;2.83;;;1.83;;
56269;SDS011;42176;43.240;27.880;2024-01-06T00:24:42;5.93;;;2.00;;
56269;SDS011;42176;43.240;27.880;2024-01-06T00:26:43;2.83;;;1.60;;
56269;SDS011;42176;43.240;27.880;2024-01-06T00:28:43;4.13;;;2.23;;
56269;SDS011;42176;43.240;27.880;2024-01-06T00:30:44;4.57;;;1.87;;
56269;SDS011;42176;43.240;27.880;2024-01-06T00:32:44;1.53;;;1.30;;
56269;SDS011;42176;43.240;27.880;2024-01-06T00:34:45;5.30;;;2.27;;
56269;SDS011;42176;43.240;27.880;2024-01-06T00:36:46;5.65;;;1.83;;
56269;SDS011;42176;43.240;27.880;2024-01-06T00:38:48;2.80;;;1.40;;
56269;SDS011;42176;43.240;27.880;2024-01-06T00:40:48;4.75;;;1.70;;
56269;SDS011;42176;43.240;27.880;2024-01-06T00:42:49;3.37;;;1.80;;
56269;SDS011;42176;43.240;27.880;2024-01-06T00:44:49;6.53;;;1.70;;
56269;SDS011;42176;43.240;27.880;2024-01-06T00:46:50;4.37;;;2.00;;
56269;SDS011;42176;43.240;27.880;2024-01-06T00:48:50;6.03;;;2.13;;
56269;SDS011;42176;43.240;27.880;2024-01-06T00:50:51;6.73;;;2.27;;
56269;SDS011;42176;43.240;27.880;2024-01-06T00:52:51;4.77;;;1.93;;
56269;SDS011;42176;43.240;27.880;2024-01-06T00:54:53;4.72;;;1.92;;
56269;SDS011;42176;43.240;27.880;2024-01-06T00:56:53;3.43;;;1.63;;
56269;SDS011;42176;43.240;27.880;2024-01-06T00:58:54;4.63;;;2.30;;
56269;SDS011;42176;43.240;27.880;2024-01-06T01:00:54;2.90;;;1.40;;
56269;SDS011;42176;43.240;27.880;2024-01-06T01:02:55;1.63;;;1.53;;
56269;SDS011;42176;43.240;27.880;2024-01-06T01:04:55;2.33;;;1.40;;
56269;SDS011;42176;43.240;27.880;2024-01-06T01:06:57;5.03;;;2.10;;
56269;SDS011;42176;43.240;27.880;2024-01-06T01:08:57;4.87;;;1.93;;
56269;SDS011;42176;43.240;27.880;2024-01-06T01:10:58;4.43;;;1.67;;
56269;SDS011;42176;43.240;27.880;2024-01-06T01:12:59;7.03;;;1.97;;
56269;SDS011;42176;43.240;27.880;2024-01-06T01:14:59;2.80;;;1.87;;
56269;SDS011;42176;43.240;27.880;2024-01-06T01:17:00;2.60;;;1.60;;
56269;SDS011;42176;43.240;27.880;2024-01-06T01:19:00;4.60;;;1.70;;
56269;SDS011;42176;43.240;27.880;2024-01-06T01:21:02;5.78;;;1.33;;
56269;SDS011;42176;43.240;27.880;2024-01-06T01:23:02;3.50;;;2.20;;
56269;SDS011;42176;43.240;27.880;2024-01-06T01:25:03;2.37;;;1.43;;
56269;SDS011;42176;43.240;27.880;2024-01-06T01:27:07;1.90;;;1.25;;
56269;SDS011;42176;43.240;27.880;2024-01-06T01:29:08;2.07;;;1.70;;
56269;SDS011;42176;43.240;27.880;2024-01-06T01:31:08;3.80;;;1.50;;
56269;SDS011;42176;43.240;27.880;2024-01-06T01:33:09;2.80;;;1.60;;
56269;SDS011;42176;43.240;27.880;2024-01-06T01:35:10;2.77;;;1.43;;
56269;SDS011;42176;43.240;27.880;2024-01-06T01:37:10;3.73;;;1.60;;
56269;SDS011;42176;43.240;27.880;2024-01-06T01:39:11;4.87;;;1.57;;
56269;SDS011;42176;43.240;27.880;2024-01-06T01:41:12;3.53;;;1.73;;
56269;SDS011;42176;43.240;27.880;2024-01-06T01:43:18;4.47;;;1.53;;
56269;SDS011;42176;43.240;27.880;2024-01-06T01:45:19;4.78;;;1.67;;
56269;SDS011;42176;43.240;27.880;2024-01-06T01:47:20;1.23;;;1.13;;
56269;SDS011;42176;43.240;27.880;2024-01-06T01:51:23;6.55;;;1.75;;
56269;SDS011;42176;43.240;27.880;2024-01-06T01:53:27;4.28;;;1.20;;
56269;SDS011;42176;43.240;27.880;2024-01-06T01:55:27;4.57;;;1.70;;
56269;SDS011;42176;43.240;27.880;2024-01-06T01:57:28;1.57;;;1.33;;
56269;SDS011;42176;43.240;27.880;2024-01-06T01:59:29;12.77;;;1.50;;
56269;SDS011;42176;43.240;27.880;2024-01-06T02:01:29;2.37;;;1.53;;
56269;SDS011;42176;43.240;27.880;2024-01-06T02:03:30;4.47;;;1.07;;
56269;SDS011;42176;43.240;27.880;2024-01-06T02:05:31;2.53;;;1.13;;
56269;SDS011;42176;43.240;27.880;2024-01-06T02:07:31;2.10;;;1.37;;
56269;SDS011;42176;43.240;27.880;2024-01-06T02:09:33;2.87;;;1.20;;
56269;SDS011;42176;43.240;27.880;2024-01-06T02:11:34;1.92;;;1.42;;
56269;SDS011;42176;43.240;27.880;2024-01-06T02:13:35;2.43;;;1.23;;
56269;SDS011;42176;43.240;27.880;2024-01-06T02:17:37;1.35;;;1.08;;
56269;SDS011;42176;43.240;27.880;2024-01-06T02:19:40;1.52;;;1.30;;
56269;SDS011;42176;43.240;27.880;2024-01-06T02:21:41;3.03;;;1.57;;
56269;SDS011;42176;43.240;27.880;2024-01-06T02:23:43;4.22;;;1.83;;
56269;SDS011;42176;43.240;27.880;2024-01-06T02:25:44;4.43;;;1.30;;
56269;SDS011;42176;43.240;27.880;2024-01-06T02:27:44;2.17;;;1.37;;
56269;SDS011;42176;43.240;27.880;2024-01-06T02:29:45;4.23;;;1.70;;
56269;SDS011;42176;43.240;27.880;2024-01-06T02:31:45;1.23;;;1.13;;
56269;SDS011;42176;43.240;27.880;2024-01-06T02:33:46;1.57;;;1.23;;
56269;SDS011;42176;43.240;27.880;2024-01-06T02:35:47;3.47;;;1.93;;
56269;SDS011;42176;43.240;27.880;2024-01-06T02:37:47;6.60;;;1.80;;
56269;SDS011;42176;43.240;27.880;2024-01-06T02:39:48;2.73;;;1.30;;
56269;SDS011;42176;43.240;27.880;2024-01-06T02:41:48;3.90;;;1.33;;
56269;SDS011;42176;43.240;27.880;2024-01-06T02:43:49;3.90;;;1.37;;
56269;SDS011;42176;43.240;27.880;2024-01-06T02:45:50;3.20;;;1.40;;
56269;SDS011;42176;43.240;27.880;2024-01-06T02:47:50;4.60;;;1.40;;
56269;SDS011;42176;43.240;27.880;2024-01-06T02:49:51;2.30;;;1.23;;
56269;SDS011;42176;43.240;27.880;2024-01-06T02:51:52;1.93;;;1.10;;
56269;SDS011;42176;43.240;27.880;2024-01-06T02:53:52;5.53;;;1.50;;
56269;SDS011;42176;43.240;27.880;2024-01-06T02:55:53;3.67;;;1.50;;
56269;SDS011;42176;43.240;27.880;2024-01-06T02:57:54;3.80;;;1.60;;
56269;SDS011;42176;43.240;27.880;2024-01-06T02:59:55;2.47;;;1.25;;
56269;SDS011;42176;43.240;27.880;2024-01-06T03:01:55;2.20;;;1.53;;
56269;SDS011;42176;43.240;27.880;2024-01-06T03:03:56;2.73;;;1.37;;
56269;SDS011;42176;43.240;27.880;2024-01-06T03:05:56;2.13;;;1.47;;
56269;SDS011;42176;43.240;27.880;2024-01-06T03:07:57;2.22;;;1.33;;
56269;SDS011;42176;43.240;27.880;2024-01-06T03:09:58;5.40;;;1.73;;
56269;SDS011;42176;43.240;27.880;2024-01-06T03:11:58;3.17;;;1.50;;
56269;SDS011;42176;43.240;27.880;2024-01-06T03:13:59;1.48;;;1.10;;
56269;SDS011;42176;43.240;27.880;2024-01-06T03:16:02;3.60;;;1.50;;
56269;SDS011;42176;43.240;27.880;2024-01-06T03:18:05;3.47;;;1.08;;
56269;SDS011;42176;43.240;27.880;2024-01-06T03:20:06;2.00;;;1.08;;
56269;SDS011;42176;43.240;27.880;2024-01-06T03:22:08;10.30;;;1.65;;
56269;SDS011;42176;43.240;27.880;2024-01-06T03:24:08;1.77;;;1.17;;
56269;SDS011;42176;43.240;27.880;2024-01-06T03:26:12;2.08;;;1.17;;
56269;SDS011;42176;43.240;27.880;2024-01-06T03:28:12;2.10;;;1.20;;
56269;SDS011;42176;43.240;27.880;2024-01-06T03:30:13;3.73;;;1.60;;
56269;SDS011;42176;43.240;27.880;2024-01-06T03:32:13;4.03;;;1.37;;
56269;SDS011;42176;43.240;27.880;2024-01-06T03:34:14;8.60;;;2.00;;
56269;SDS011;42176;43.240;27.880;2024-01-06T03:36:15;7.53;;;1.63;;
56269;SDS011;42176;43.240;27.880;2024-01-06T03:38:16;6.15;;;1.98;;
56269;SDS011;42176;43.240;27.880;2024-01-06T03:40:17;7.17;;;1.93;;
56269;SDS011;42176;43.240;27.880;2024-01-06T03:42:17;4.70;;;2.30;;
56269;SDS011;42176;43.240;27.880;2024-01-06T03:44:18;3.53;;;1.73;;
56269;SDS011;42176;43.240;27.880;2024-01-06T03:46:19;2.20;;;1.50;;
56269;SDS011;42176;43.240;27.880;2024-01-06T03:48:19;3.27;;;1.70;;
56269;SDS011;42176;43.240;27.880;2024-01-06T03:50:20;3.67;;;1.40;;
56269;SDS011;42176;43.240;27.880;2024-01-06T03:52:20;3.53;;;1.60;;
56269;SDS011;42176;43.240;27.880;2024-01-06T03:54:21;6.47;;;1.47;;
56269;SDS011;42176;43.240;27.880;2024-01-06T03:56:21;1.33;;;1.20;;
56269;SDS011;42176;43.240;27.880;2024-01-06T03:58:22;2.03;;;1.27;;
56269;SDS011;42176;43.240;27.880;2024-01-06T04:00:23;1.43;;;1.00;;
56269;SDS011;42176;43.240;27.880;2024-01-06T04:02:26;3.75;;;1.50;;
56269;SDS011;42176;43.240;27.880;2024-01-06T04:04:26;5.73;;;1.40;;
56269;SDS011;42176;43.240;27.880;2024-01-06T04:06:27;1.17;;;1.07;;
56269;SDS011;42176;43.240;27.880;2024-01-06T04:08:27;1.83;;;1.20;;
56269;SDS011;42176;43.240;27.880;2024-01-06T04:10:28;1.90;;;1.20;;
56269;SDS011;42176;43.240;27.880;2024-01-06T04:12:28;6.70;;;1.70;;
56269;SDS011;42176;43.240;27.880;2024-01-06T04:14:29;5.47;;;0.80;;
56269;SDS011;42176;43.240;27.880;2024-01-06T04:16:29;2.47;;;1.40;;
56269;SDS011;42176;43.240;27.880;2024-01-06T04:18:30;0.50;;;0.50;;
56269;SDS011;42176;43.240;27.880;2024-01-06T04:20:31;2.13;;;1.30;;
56269;SDS011;42176;43.240;27.880;2024-01-06T04:22:32;1.02;;;0.60;;
56269;SDS011;42176;43.240;27.880;2024-01-06T04:24:33;2.70;;;1.20;;
56269;SDS011;42176;43.240;27.880;2024-01-06T04:26:37;3.42;;;1.52;;
56269;SDS011;42176;43.240;27.880;2024-01-06T04:28:37;2.73;;;1.17;;
56269;SDS011;42176;43.240;27.880;2024-01-06T04:30:38;2.67;;;1.50;;
56269;SDS011;42176;43.240;27.880;2024-01-06T04:32:39;1.23;;;0.90;;
56269;SDS011;42176;43.240;27.880;2024-01-06T04:34:39;2.97;;;1.17;;
56269;SDS011;42176;43.240;27.880;2024-01-06T04:36:40;2.70;;;1.13;;
56269;SDS011;42176;43.240;27.880;2024-01-06T04:38:40;1.20;;;0.87;;
56269;SDS011;42176;43.240;27.880;2024-01-06T04:40:41;2.90;;;1.40;;
56269;SDS011;42176;43.240;27.880;2024-01-06T04:42:41;2.80;;;1.30;;
56269;SDS011;42176;43.240;27.880;2024-01-06T04:44:42;2.33;;;1.37;;
56269;SDS011;42176;43.240;27.880;2024-01-06T04:46:42;1.70;;;1.37;;
56269;SDS011;42176;43.240;27.880;2024-01-06T04:48:43;3.93;;;1.53;;
56269;SDS011;42176;43.240;27.880;2024-01-06T04:50:44;4.03;;;1.23;;
56269;SDS011;42176;43.240;27.880;2024-01-06T04:52:44;3.60;;;1.70;;
56269;SDS011;42176;43.240;27.880;2024-01-06T04:54:45;2.17;;;1.50;;
56269;SDS011;42176;43.240;27.880;2024-01-06T04:56:46;2.60;;;1.30;;
56269;SDS011;42176;43.240;27.880;2024-01-06T04:58:46;8.23;;;1.77;;
56269;SDS011;42176;43.240;27.880;2024-01-06T05:00:47;3.33;;;1.20;;
56269;SDS011;42176;43.240;27.880;2024-01-06T05:02:47;1.77;;;1.30;;
56269;SDS011;42176;43.240;27.880;2024-01-06T05:04:48;5.87;;;1.67;;
56269;SDS011;42176;43.240;27.880;2024-01-06T05:06:49;6.40;;;1.50;;
56269;SDS011;42176;43.240;27.880;2024-01-06T05:08:51;4.95;;;1.52;;
56269;SDS011;42176;43.240;27.880;2024-01-06T05:10:52;1.93;;;1.20;;
56269;SDS011;42176;43.240;27.880;2024-01-06T05:14:54;1.60;;;1.00;;
56269;SDS011;42176;43.240;27.880;2024-01-06T05:16:54;3.23;;;1.47;;
56269;SDS011;42176;43.240;27.880;2024-01-06T05:18:55;2.43;;;1.60;;
56269;SDS011;42176;43.240;27.880;2024-01-06T05:20:55;2.67;;;1.27;;
56269;SDS011;42176;43.240;27.880;2024-01-06T05:22:57;2.38;;;1.63;;
56269;SDS011;42176;43.240;27.880;2024-01-06T05:24:57;9.00;;;1.33;;
56269;SDS011;42176;43.240;27.880;2024-01-06T05:26:58;6.87;;;2.17;;
56269;SDS011;42176;43.240;27.880;2024-01-06T05:28:58;3.23;;;1.93;;
56269;SDS011;42176;43.240;27.880;2024-01-06T05:30:59;2.27;;;1.40;;
56269;SDS011;42176;43.240;27.880;2024-01-06T05:33:00;2.87;;;1.83;;
56269;SDS011;42176;43.240;27.880;2024-01-06T05:35:01;5.18;;;1.73;;
56269;SDS011;42176;43.240;27.880;2024-01-06T05:37:02;6.57;;;2.07;;
56269;SDS011;42176;43.240;27.880;2024-01-06T05:39:02;6.60;;;2.27;;
56269;SDS011;42176;43.240;27.880;2024-01-06T05:41:03;2.07;;;1.77;;
56269;SDS011;42176;43.240;27.880;2024-01-06T05:43:03;6.67;;;1.83;;
56269;SDS011;42176;43.240;27.880;2024-01-06T05:45:05;5.35;;;1.80;;
56269;SDS011;42176;43.240;27.880;2024-01-06T05:47:06;4.27;;;1.70;;
56269;SDS011;42176;43.240;27.880;2024-01-06T05:51:10;3.15;;;2.00;;
56269;SDS011;42176;43.240;27.880;2024-01-06T05:53:10;7.87;;;2.47;;
56269;SDS011;42176;43.240;27.880;2024-01-06T05:55:11;2.67;;;2.00;;
56269;SDS011;42176;43.240;27.880;2024-01-06T05:57:12;6.53;;;2.90;;
56269;SDS011;42176;43.240;27.880;2024-01-06T05:59:12;4.13;;;2.60;;
56269;SDS011;42176;43.240;27.880;2024-01-06T06:01:14;3.38;;;2.30;;
56269;SDS011;42176;43.240;27.880;2024-01-06T06:03:14;14.20;;;3.77;;
56269;SDS011;42176;43.240;27.880;2024-01-06T06:05:15;7.77;;;4.00;;
56269;SDS011;42176;43.240;27.880;2024-01-06T06:07:16;5.27;;;3.30;;
56269;SDS011;42176;43.240;27.880;2024-01-06T06:09:16;6.90;;;3.00;;
56269;SDS011;42176;43.240;27.880;2024-01-06T06:11:17;7.23;;;2.70;;
56269;SDS011;42176;43.240;27.880;2024-01-06T06:13:18;3.03;;;2.03;;
56269;SDS011;42176;43.240;27.880;2024-01-06T06:15:19;5.40;;;2.60;;
56269;SDS011;42176;43.240;27.880;2024-01-06T06:17:19;12.17;;;2.83;;
56269;SDS011;42176;43.240;27.880;2024-01-06T06:19:20;8.60;;;2.77;;
56269;SDS011;42176;43.240;27.880;2024-01-06T06:21:20;9.30;;;2.87;;
56269;SDS011;42176;43.240;27.880;2024-01-06T06:23:21;5.95;;;1.77;;
56269;SDS011;42176;43.240;27.880;2024-01-06T06:25:22;4.03;;;2.23;;
56269;SDS011;42176;43.240;27.880;2024-01-06T06:27:23;13.90;;;2.47;;
56269;SDS011;42176;43.240;27.880;2024-01-06T06:29:23;6.70;;;3.17;;
56269;SDS011;42176;43.240;27.880;2024-01-06T06:31:24;8.23;;;3.50;;
56269;SDS011;42176;43.240;27.880;2024-01-06T06:33:25;9.07;;;3.87;;
56269;SDS011;42176;43.240;27.880;2024-01-06T06:35:25;4.63;;;2.87;;
56269;SDS011;42176;43.240;27.880;2024-01-06T06:37:26;8.10;;;2.83;;
56269;SDS011;42176;43.240;27.880;2024-01-06T06:39:27;4.17;;;1.80;;
56269;SDS011;42176;43.240;27.880;2024-01-06T06:41:27;6.13;;;2.13;;
56269;SDS011;42176;43.240;27.880;2024-01-06T06:43:28;5.53;;;2.70;;
56269;SDS011;42176;43.240;27.880;2024-01-06T06:45:28;5.07;;;2.93;;
56269;SDS011;42176;43.240;27.880;2024-01-06T06:47:29;6.23;;;2.10;;
56269;SDS011;42176;43.240;27.880;2024-01-06T06:49:29;4.83;;;2.50;;
56269;SDS011;42176;43.240;27.880;2024-01-06T06:51:30;6.80;;;2.70;;
56269;SDS011;42176;43.240;27.880;2024-01-06T06:53:30;5.43;;;2.90;;
56269;SDS011;42176;43.240;27.880;2024-01-06T06:55:31;8.13;;;2.37;;
56269;SDS011;42176;43.240;27.880;2024-01-06T06:57:31;3.00;;;1.83;;
56269;SDS011;42176;43.240;27.880;2024-01-06T06:59:32;2.83;;;2.03;;
56269;SDS011;42176;43.240;27.880;2024-01-06T07:01:33;6.77;;;2.77;;
56269;SDS011;42176;43.240;27.880;2024-01-06T07:03:34;8.52;;;3.20;;
56269;SDS011;42176;43.240;27.880;2024-01-06T07:05:34;5.20;;;2.53;;
56269;SDS011;42176;43.240;27.880;2024-01-06T07:07:35;16.33;;;3.93;;
56269;SDS011;42176;43.240;27.880;2024-01-06T07:09:35;7.23;;;2.43;;
56269;SDS011;42176;43.240;27.880;2024-01-06T07:11:36;2.87;;;1.80;;
56269;SDS011;42176;43.240;27.880;2024-01-06T07:13:37;11.27;;;1.97;;
56269;SDS011;42176;43.240;27.880;2024-01-06T07:15:37;3.50;;;2.70;;
56269;SDS011;42176;43.240;27.880;2024-01-06T07:17:38;3.93;;;2.63;;
56269;SDS011;42176;43.240;27.880;2024-01-06T07:19:38;15.47;;;2.93;;
56269;SDS011;42176;43.240;27.880;2024-01-06T07:21:39;23.17;;;3.57;;
56269;SDS011;42176;43.240;27.880;2024-01-06T07:23:40;11.10;;;2.53;;
56269;SDS011;42176;43.240;27.880;2024-01-06T07:25:40;4.53;;;2.10;;
56269;SDS011;42176;43.240;27.880;2024-01-06T07:27:41;7.77;;;2.50;;
56269;SDS011;42176;43.240;27.880;2024-01-06T07:29:41;13.23;;;2.70;;
56269;SDS011;42176;43.240;27.880;2024-01-06T07:31:42;5.60;;;1.50;;
56269;SDS011;42176;43.240;27.880;2024-01-06T07:33:43;5.87;;;1.87;;
56269;SDS011;42176;43.240;27.880;2024-01-06T07:35:43;15.83;;;2.40;;
56269;SDS011;42176;43.240;27.880;2024-01-06T07:37:44;11.20;;;2.23;;
56269;SDS011;42176;43.240;27.880;2024-01-06T07:39:44;5.17;;;2.20;;
56269;SDS011;42176;43.240;27.880;2024-01-06T07:41:45;2.77;;;1.60;;
56269;SDS011;42176;43.240;27.880;2024-01-06T07:43:46;3.63;;;2.00;;
56269;SDS011;42176;43.240;27.880;2024-01-06T07:45:47;1.63;;;0.93;;
56269;SDS011;42176;43.240;27.880;2024-01-06T07:47:48;9.73;;;3.47;;
56269;SDS011;42176;43.240;27.880;2024-01-06T07:49:49;8.20;;;2.67;;
56269;SDS011;42176;43.240;27.880;2024-01-06T07:51:49;9.10;;;2.90;;
56269;SDS011;42176;43.240;27.880;2024-01-06T07:53:50;6.17;;;2.40;;
56269;SDS011;42176;43.240;27.880;2024-01-06T07:55:51;4.23;;;2.27;;
56269;SDS011;42176;43.240;27.880;2024-01-06T07:57:51;6.43;;;3.40;;
56269;SDS011;42176;43.240;27.880;2024-01-06T07:59:53;6.30;;;2.35;;
56269;SDS011;42176;43.240;27.880;2024-01-06T08:01:53;7.00;;;3.57;;
56269;SDS011;42176;43.240;27.880;2024-01-06T08:03:54;3.23;;;2.13;;
56269;SDS011;42176;43.240;27.880;2024-01-06T08:05:54;4.50;;;2.07;;
56269;SDS011;42176;43.240;27.880;2024-01-06T08:07:55;13.37;;;2.83;;
56269;SDS011;42176;43.240;27.880;2024-01-06T08:09:56;13.67;;;2.63;;
56269;SDS011;42176;43.240;27.880;2024-01-06T08:11:56;8.40;;;2.57;;
56269;SDS011;42176;43.240;27.880;2024-01-06T08:13:57;20.00;;;8.83;;
56269;SDS011;42176;43.240;27.880;2024-01-06T08:15:58;18.43;;;4.60;;
56269;SDS011;42176;43.240;27.880;2024-01-06T08:17:59;6.47;;;2.95;;
56269;SDS011;42176;43.240;27.880;2024-01-06T08:20:00;8.23;;;3.10;;
56269;SDS011;42176;43.240;27.880;2024-01-06T08:22:00;6.53;;;3.40;;
56269;SDS011;42176;43.240;27.880;2024-01-06T08:24:01;8.87;;;3.07;;
56269;SDS011;42176;43.240;27.880;2024-01-06T08:26:02;12.93;;;3.17;;
56269;SDS011;42176;43.240;27.880;2024-01-06T08:28:04;11.40;;;3.92;;
56269;SDS011;42176;43.240;27.880;2024-01-06T08:30:05;11.10;;;3.37;;
56269;SDS011;42176;43.240;27.880;2024-01-06T08:32:06;7.38;;;3.63;;
56269;SDS011;42176;43.240;27.880;2024-01-06T08:34:07;7.68;;;3.25;;
56269;SDS011;42176;43.240;27.880;2024-01-06T08:36:08;11.77;;;4.03;;
56269;SDS011;42176;43.240;27.880;2024-01-06T08:38:09;4.80;;;1.55;;
56269;SDS011;42176;43.240;27.880;2024-01-06T08:40:10;4.97;;;2.77;;
56269;SDS011;42176;43.240;27.880;2024-01-06T08:42:11;10.10;;;3.65;;
56269;SDS011;42176;43.240;27.880;2024-01-06T08:44:12;9.40;;;3.53;;
56269;SDS011;42176;43.240;27.880;2024-01-06T08:46:12;8.93;;;3.37;;
56269;SDS011;42176;43.240;27.880;2024-01-06T08:48:13;13.23;;;3.40;;
56269;SDS011;42176;43.240;27.880;2024-01-06T08:50:15;10.35;;;4.18;;
56269;SDS011;42176;43.240;27.880;2024-01-06T08:52:15;3.87;;;2.40;;
56269;SDS011;42176;43.240;27.880;2024-01-06T08:54:17;3.10;;;1.65;;
56269;SDS011;42176;43.240;27.880;2024-01-06T08:56:17;7.37;;;2.80;;
56269;SDS011;42176;43.240;27.880;2024-01-06T08:58:18;8.57;;;3.00;;
56269;SDS011;42176;43.240;27.880;2024-01-06T09:00:18;5.20;;;2.73;;
56269;SDS011;42176;43.240;27.880;2024-01-06T09:02:19;13.03;;;2.83;;
56269;SDS011;42176;43.240;27.880;2024-01-06T09:04:20;6.00;;;3.60;;
56269;SDS011;42176;43.240;27.880;2024-01-06T09:06:20;6.10;;;2.97;;
56269;SDS011;42176;43.240;27.880;2024-01-06T09:08:21;6.77;;;3.27;;
56269;SDS011;42176;43.240;27.880;2024-01-06T09:10:22;6.72;;;2.80;;
56269;SDS011;42176;43.240;27.880;2024-01-06T09:12:23;5.30;;;3.60;;
56269;SDS011;42176;43.240;27.880;2024-01-06T09:14:23;5.67;;;2.73;;
56269;SDS011;42176;43.240;27.880;2024-01-06T09:16:24;8.07;;;3.30;;
56269;SDS011;42176;43.240;27.880;2024-01-06T09:18:25;8.40;;;2.50;;
56269;SDS011;42176;43.240;27.880;2024-01-06T09:20:26;6.60;;;2.67;;
56269;SDS011;42176;43.240;27.880;2024-01-06T09:22:27;5.20;;;2.90;;
56269;SDS011;42176;43.240;27.880;2024-01-06T09:24:28;1.55;;;1.30;;
56269;SDS011;42176;43.240;27.880;2024-01-06T09:26:29;2.60;;;1.93;;
56269;SDS011;42176;43.240;27.880;2024-01-06T09:28:29;5.93;;;3.00;;
56269;SDS011;42176;43.240;27.880;2024-01-06T09:30:30;6.20;;;3.07;;
56269;SDS011;42176;43.240;27.880;2024-01-06T09:32:31;7.93;;;2.47;;
56269;SDS011;42176;43.240;27.880;2024-01-06T09:34:32;11.80;;;2.60;;
56269;SDS011;42176;43.240;27.880;2024-01-06T09:36:32;4.47;;;2.67;;
56269;SDS011;42176;43.240;27.880;2024-01-06T09:38:33;12.60;;;2.73;;
56269;SDS011;42176;43.240;27.880;2024-01-06T09:40:33;9.33;;;1.77;;
56269;SDS011;42176;43.240;27.880;2024-01-06T09:44:35;10.18;;;3.10;;
56269;SDS011;42176;43.240;27.880;2024-01-06T09:46:36;6.33;;;2.90;;
56269;SDS011;42176;43.240;27.880;2024-01-06T09:48:40;6.47;;;2.45;;
56269;SDS011;42176;43.240;27.880;2024-01-06T09:50:44;4.65;;;2.22;;
56269;SDS011;42176;43.240;27.880;2024-01-06T09:52:45;7.25;;;2.65;;
56269;SDS011;42176;43.240;27.880;2024-01-06T09:55:04;9.50;;;3.03;;
56269;SDS011;42176;43.240;27.880;2024-01-06T09:57:10;11.70;;;2.78;;
56269;SDS011;42176;43.240;27.880;2024-01-06T09:59:10;9.00;;;3.00;;
56269;SDS011;42176;43.240;27.880;2024-01-06T10:01:11;9.17;;;2.83;;
56269;SDS011;42176;43.240;27.880;2024-01-06T10:03:12;6.03;;;1.93;;
56269;SDS011;42176;43.240;27.880;2024-01-06T10:05:12;8.07;;;2.90;;
56269;SDS011;42176;43.240;27.880;2024-01-06T10:07:13;8.98;;;2.47;;
56269;SDS011;42176;43.240;27.880;2024-01-06T10:09:14;10.43;;;2.10;;
56269;SDS011;42176;43.240;27.880;2024-01-06T10:11:14;1.87;;;1.23;;
56269;SDS011;42176;43.240;27.880;2024-01-06T10:13:16;3.93;;;1.10;;
56269;SDS011;42176;43.240;27.880;2024-01-06T10:15:17;5.50;;;1.67;;
56269;SDS011;42176;43.240;27.880;2024-01-06T10:17:18;5.97;;;1.43;;
56269;SDS011;42176;43.240;27.880;2024-01-06T10:19:19;5.88;;;1.42;;
56269;SDS011;42176;43.240;27.880;2024-01-06T10:21:21;2.80;;;1.50;;
56269;SDS011;42176;43.240;27.880;2024-01-06T10:23:22;3.53;;;1.17;;
56269;SDS011;42176;43.240;27.880;2024-01-06T10:25:24;6.80;;;1.05;;
56269;SDS011;42176;43.240;27.880;2024-01-06T10:27:25;9.02;;;1.30;;
56269;SDS011;42176;43.240;27.880;2024-01-06T10:29:25;4.07;;;1.40;;
56269;SDS011;42176;43.240;27.880;2024-01-06T10:31:27;3.60;;;1.60;;
56269;SDS011;42176;43.240;27.880;2024-01-06T10:33:28;3.73;;;1.80;;
56269;SDS011;42176;43.240;27.880;2024-01-06T10:35:28;5.30;;;2.07;;
56269;SDS011;42176;43.240;27.880;2024-01-06T10:37:29;4.37;;;1.67;;
56269;SDS011;42176;43.240;27.880;2024-01-06T10:39:30;4.72;;;1.52;;
56269;SDS011;42176;43.240;27.880;2024-01-06T10:41:31;2.63;;;1.80;;
56269;SDS011;42176;43.240;27.880;2024-01-06T10:45:36;3.65;;;1.50;;
56269;SDS011;42176;43.240;27.880;2024-01-06T10:47:37;11.50;;;2.60;;
56269;SDS011;42176;43.240;27.880;2024-01-06T10:49:39;4.60;;;0.85;;
56269;SDS011;42176;43.240;27.880;2024-01-06T10:51:40;2.20;;;1.48;;
56269;SDS011;42176;43.240;27.880;2024-01-06T10:53:41;8.23;;;2.23;;
56269;SDS011;42176;43.240;27.880;2024-01-06T10:57:44;8.40;;;3.05;;
56269;SDS011;42176;43.240;27.880;2024-01-06T11:01:50;6.78;;;2.83;;
56269;SDS011;42176;43.240;27.880;2024-01-06T11:03:53;9.70;;;2.83;;
56269;SDS011;42176;43.240;27.880;2024-01-06T11:05:55;5.18;;;2.47;;
56269;SDS011;42176;43.240;27.880;2024-01-06T11:07:57;5.80;;;2.42;;
56269;SDS011;42176;43.240;27.880;2024-01-06T11:10:05;5.53;;;2.65;;
56269;SDS011;42176;43.240;27.880;2024-01-06T11:12:11;6.75;;;2.38;;
56269;SDS011;42176;43.240;27.880;2024-01-06T11:14:18;4.00;;;1.80;;
56269;SDS011;42176;43.240;27.880;2024-01-06T11:16:34;15.30;;;3.17;;
56269;SDS011;42176;43.240;27.880;2024-01-06T11:18:36;7.03;;;2.60;;
56269;SDS011;42176;43.240;27.880;2024-01-06T11:20:41;11.30;;;3.42;;
56269;SDS011;42176;43.240;27.880;2024-01-06T11:23:17;13.73;;;2.42;;
56269;SDS011;42176;43.240;27.880;2024-01-06T11:25:21;5.13;;;2.55;;
56269;SDS011;42176;43.240;27.880;2024-01-06T11:29:24;11.80;;;3.10;;
56269;SDS011;42176;43.240;27.880;2024-01-06T11:31:28;8.23;;;2.63;;
56269;SDS011;42176;43.240;27.880;2024-01-06T11:33:31;14.90;;;3.20;;
56269;SDS011;42176;43.240;27.880;2024-01-06T11:35:32;7.03;;;2.63;;
56269;SDS011;42176;43.240;27.880;2024-01-06T11:37:37;6.13;;;2.63;;
56269;SDS011;42176;43.240;27.880;2024-01-06T11:39:51;6.13;;;3.72;;
56269;SDS011;42176;43.240;27.880;2024-01-06T11:41:53;8.35;;;2.97;;
56269;SDS011;42176;43.240;27.880;2024-01-06T11:43:54;8.17;;;3.10;;
56269;SDS011;42176;43.240;27.880;2024-01-06T11:45:54;5.20;;;3.23;;
56269;SDS011;42176;43.240;27.880;2024-01-06T11:48:01;6.88;;;2.22;;
56269;SDS011;42176;43.240;27.880;2024-01-06T11:50:03;16.35;;;4.15;;
56269;SDS011;42176;43.240;27.880;2024-01-06T11:52:05;12.00;;;4.63;;
56269;SDS011;42176;43.240;27.880;2024-01-06T11:54:05;5.75;;;3.25;;
56269;SDS011;42176;43.240;27.880;2024-01-06T11:56:06;7.60;;;2.80;;
56269;SDS011;42176;43.240;27.880;2024-01-06T11:58:07;12.70;;;4.50;;
56269;SDS011;42176;43.240;27.880;2024-01-06T12:00:08;14.20;;;4.17;;
56269;SDS011;42176;43.240;27.880;2024-01-06T12:02:12;10.30;;;3.72;;
56269;SDS011;42176;43.240;27.880;2024-01-06T12:04:14;4.70;;;3.03;;
56269;SDS011;42176;43.240;27.880;2024-01-06T12:06:19;12.52;;;3.50;;
56269;SDS011;42176;43.240;27.880;2024-01-06T12:08:21;5.72;;;2.72;;
56269;SDS011;42176;43.240;27.880;2024-01-06T12:10:22;6.30;;;3.17;;
56269;SDS011;42176;43.240;27.880;2024-01-06T12:12:24;11.80;;;3.53;;
56269;SDS011;42176;43.240;27.880;2024-01-06T12:14:24;4.10;;;2.83;;
56269;SDS011;42176;43.240;27.880;2024-01-06T12:16:25;6.03;;;3.10;;